createdAt,value
2019-05-30T00:01:46.037Z,12.37
2019-05-30T00:04:11.898Z,12.50
2019-05-30T00:06:37.752Z,12.37
2019-05-30T00:09:07.340Z,12.13
2019-05-30T00:11:33.213Z,12.31
2019-05-30T00:13:59.164Z,12.31
2019-05-30T00:16:25.154Z,12.25
2019-05-30T00:18:51.015Z,12.25
2019-05-30T00:21:16.827Z,12.37
2019-05-30T00:23:42.799Z,12.00
2019-05-30T00:26:08.659Z,12.13
2019-05-30T00:28:34.510Z,12.19
2019-05-30T00:31:00.468Z,12.06
2019-05-30T00:33:26.394Z,12.06
2019-05-30T00:35:52.260Z,12.00
2019-05-30T00:38:18.278Z,11.88
2019-05-30T00:40:44.180Z,11.81
2019-05-30T00:43:10.065Z,11.56
2019-05-30T00:45:36.061Z,11.75
2019-05-30T00:48:02.258Z,11.81
2019-05-30T00:50:28.214Z,11.75
2019-05-30T00:52:54.113Z,11.75
2019-05-30T00:55:20.088Z,11.81
2019-05-30T00:57:46.008Z,11.88
2019-05-30T01:00:12.005Z,11.81
2019-05-30T01:02:37.952Z,11.63
2019-05-30T01:05:05.223Z,11.81
2019-05-30T01:07:31.151Z,11.75
2019-05-30T01:09:56.983Z,11.69
2019-05-30T01:12:22.826Z,11.69
2019-05-30T01:14:48.713Z,11.69
2019-05-30T01:17:14.591Z,11.81
2019-05-30T01:19:40.995Z,11.69
2019-05-30T01:22:07.562Z,11.63
2019-05-30T01:24:33.576Z,11.75
2019-05-30T01:26:59.424Z,11.56
2019-05-30T01:29:25.321Z,11.56
2019-05-30T01:31:51.422Z,11.38
2019-05-30T01:34:17.359Z,11.44
2019-05-30T01:36:43.287Z,11.44
2019-05-30T01:39:09.223Z,11.50
2019-05-30T01:41:35.035Z,11.44
2019-05-30T01:44:01.848Z,11.38
2019-05-30T01:46:27.942Z,11.31
2019-05-30T01:48:53.973Z,11.38
2019-05-30T01:51:19.946Z,11.63
2019-05-30T01:53:45.867Z,11.19
2019-05-30T01:56:11.827Z,11.31
2019-05-30T01:58:37.681Z,11.25
2019-05-30T02:01:18.892Z,11.12
2019-05-30T02:03:32.761Z,11.31
2019-05-30T02:05:58.898Z,11.12
2019-05-30T02:08:24.891Z,11.19
2019-05-30T02:10:50.719Z,11.31
2019-05-30T02:13:16.573Z,11.25
2019-05-30T02:15:42.400Z,11.19
2019-05-30T02:18:08.244Z,11.38
2019-05-30T02:20:34.090Z,11.19
2019-05-30T02:23:00.017Z,11.25
2019-05-30T02:25:26.103Z,11.31
2019-05-30T02:27:51.930Z,11.12
2019-05-30T02:30:18.084Z,11.06
2019-05-30T02:32:43.897Z,11.06
2019-05-30T02:35:12.159Z,11.00
2019-05-30T02:37:37.676Z,11.00
2019-05-30T02:40:07.511Z,11.06
2019-05-30T02:42:32.400Z,11.06
2019-05-30T02:44:58.247Z,11.06
2019-05-30T02:47:24.095Z,10.94
2019-05-30T02:49:49.973Z,11.00
2019-05-30T02:52:15.794Z,10.94
2019-05-30T02:54:41.662Z,10.81
2019-05-30T02:57:08.009Z,11.12
2019-05-30T02:59:35.237Z,11.06
2019-05-30T03:02:04.506Z,10.94
2019-05-30T03:04:28.945Z,11.00
2019-05-30T03:06:54.881Z,10.94
2019-05-30T03:09:20.733Z,10.81
2019-05-30T03:11:46.719Z,10.88
2019-05-30T03:14:19.015Z,10.75
2019-05-30T03:16:40.393Z,10.94
2019-05-30T03:19:06.349Z,10.88
2019-05-30T03:21:32.699Z,10.88
2019-05-30T03:23:58.668Z,10.88
2019-05-30T03:26:25.139Z,10.94
2019-05-30T03:28:53.571Z,10.94
2019-05-30T03:31:27.874Z,10.88
2019-05-30T03:33:48.679Z,11.06
2019-05-30T03:36:27.624Z,10.94
2019-05-30T03:38:42.323Z,10.94
2019-05-30T03:41:09.927Z,10.88
2019-05-30T03:43:36.489Z,11.06
2019-05-30T03:46:05.929Z,11.00
2019-05-30T03:48:33.164Z,11.00
2019-05-30T03:50:59.127Z,10.94
2019-05-30T03:53:25.056Z,11.12
2019-05-30T03:55:54.890Z,11.00
2019-05-30T03:58:42.382Z,10.75
2019-05-30T04:01:12.586Z,11.00
2019-05-30T04:03:52.327Z,10.94
2019-05-30T04:06:40.270Z,11.00
2019-05-30T04:09:11.338Z,11.12
2019-05-30T04:12:07.805Z,11.12
2019-05-30T04:14:37.659Z,11.25
2019-05-30T04:17:03.540Z,11.31
2019-05-30T04:19:29.505Z,11.25
2019-05-30T04:21:55.443Z,11.38
2019-05-30T04:24:21.385Z,11.44
2019-05-30T04:26:47.331Z,11.38
2019-05-30T04:29:15.039Z,11.56
2019-05-30T04:31:40.928Z,11.75
2019-05-30T04:34:08.179Z,11.69
2019-05-30T04:36:34.434Z,11.88
2019-05-30T04:39:00.313Z,11.94
2019-05-30T04:41:26.243Z,11.81
2019-05-30T04:43:52.339Z,12.19
2019-05-30T04:46:19.621Z,12.25
2019-05-30T04:48:46.461Z,12.25
2019-05-30T04:51:14.101Z,12.37
2019-05-30T04:53:41.380Z,12.25
2019-05-30T04:56:07.352Z,12.50
2019-05-30T04:58:33.413Z,12.44
2019-05-30T05:00:59.311Z,12.50
2019-05-30T05:03:44.368Z,12.69
2019-05-30T05:05:53.287Z,12.44
2019-05-30T05:08:19.931Z,12.81
2019-05-30T05:10:45.989Z,12.75
2019-05-30T05:13:12.278Z,12.81
2019-05-30T05:15:38.346Z,12.81
2019-05-30T05:18:04.366Z,12.94
2019-05-30T05:20:30.321Z,12.94
2019-05-30T05:22:56.238Z,13.13
2019-05-30T05:25:22.174Z,13.13
2019-05-30T05:27:48.216Z,13.19
2019-05-30T05:30:15.925Z,13.31
2019-05-30T05:32:42.040Z,13.31
2019-05-30T05:35:08.265Z,13.50
2019-05-30T05:37:34.290Z,13.69
2019-05-30T05:40:00.184Z,13.62
2019-05-30T05:42:28.496Z,13.62
2019-05-30T05:44:53.826Z,13.62
2019-05-30T05:47:20.468Z,13.56
2019-05-30T05:49:46.540Z,13.62
2019-05-30T05:52:12.445Z,13.75
2019-05-30T05:54:38.400Z,13.62
2019-05-30T05:57:04.500Z,13.69
2019-05-30T05:59:30.433Z,13.62
2019-05-30T06:01:56.372Z,13.62
2019-05-30T06:04:23.251Z,13.81
2019-05-30T06:06:49.253Z,13.75
2019-05-30T06:09:16.408Z,13.88
2019-05-30T06:11:42.556Z,14.00
2019-05-30T06:14:08.843Z,13.94
2019-05-30T06:16:34.773Z,14.13
2019-05-30T06:19:01.019Z,14.13
2019-05-30T06:21:27.567Z,14.25
2019-05-30T06:23:53.856Z,14.13
2019-05-30T06:26:20.062Z,14.25
2019-05-30T06:28:45.997Z,14.38
2019-05-30T06:31:11.884Z,14.31
2019-05-30T06:33:37.847Z,14.44
2019-05-30T06:36:03.829Z,14.50
2019-05-30T06:38:29.894Z,14.69
2019-05-30T06:40:55.889Z,14.69
2019-05-30T06:43:22.169Z,14.75
2019-05-30T06:45:48.127Z,14.87
2019-05-30T06:48:15.747Z,14.87
2019-05-30T06:50:41.595Z,14.87
2019-05-30T06:53:07.675Z,14.94
2019-05-30T06:55:33.600Z,15.00
2019-05-30T06:57:59.513Z,15.13
2019-05-30T07:00:26.468Z,15.13
2019-05-30T07:02:52.778Z,15.19
2019-05-30T07:05:19.265Z,15.25
2019-05-30T07:07:45.673Z,15.31
2019-05-30T07:10:12.874Z,15.38
2019-05-30T07:12:38.837Z,15.44
2019-05-30T07:15:08.687Z,15.56
2019-05-30T07:17:34.683Z,15.69
2019-05-30T07:20:00.700Z,15.69
2019-05-30T07:22:27.739Z,15.75
2019-05-30T07:24:53.765Z,15.88
2019-05-30T07:27:19.779Z,15.94
2019-05-30T07:29:45.711Z,16.12
2019-05-30T07:32:13.472Z,16.06
2019-05-30T07:34:39.538Z,16.12
2019-05-30T07:37:05.553Z,16.19
2019-05-30T07:39:33.738Z,16.19
2019-05-30T07:42:06.330Z,16.25
2019-05-30T07:44:27.085Z,16.37
2019-05-30T07:46:52.977Z,16.50
2019-05-30T07:49:18.909Z,16.56
2019-05-30T07:51:44.781Z,16.62
2019-05-30T07:54:11.899Z,16.75
2019-05-30T07:56:47.210Z,16.69
2019-05-30T07:59:13.197Z,16.87
2019-05-30T08:01:39.639Z,16.94
2019-05-30T08:04:05.859Z,17.00
2019-05-30T08:06:33.940Z,17.06
2019-05-30T08:08:59.950Z,17.25
2019-05-30T08:11:57.270Z,17.37
2019-05-30T08:14:23.212Z,17.31
2019-05-30T08:16:49.216Z,17.31
2019-05-30T08:19:15.491Z,17.31
2019-05-30T08:21:41.470Z,17.31
2019-05-30T08:24:07.504Z,17.37
2019-05-30T08:26:36.397Z,17.37
2019-05-30T08:29:04.385Z,17.37
2019-05-30T08:31:30.465Z,17.44
2019-05-30T08:33:59.173Z,17.50
2019-05-30T08:36:25.166Z,17.56
2019-05-30T08:38:51.052Z,17.62
2019-05-30T08:41:17.034Z,17.62
2019-05-30T08:43:42.946Z,17.69
2019-05-30T08:46:08.804Z,17.75
2019-05-30T08:48:36.109Z,17.81
2019-05-30T08:51:03.013Z,17.81
2019-05-30T08:53:30.108Z,17.87
2019-05-30T08:55:56.170Z,17.94
2019-05-30T08:58:22.236Z,17.94
2019-05-30T09:00:48.290Z,18.00
2019-05-30T09:03:15.582Z,18.06
2019-05-30T09:06:00.910Z,18.12
2019-05-30T09:08:15.100Z,18.19
2019-05-30T09:10:42.555Z,18.31
2019-05-30T09:13:08.804Z,18.50
2019-05-30T09:15:34.695Z,18.37
2019-05-30T09:18:00.875Z,18.50
2019-05-30T09:20:30.677Z,18.44
2019-05-30T09:22:55.323Z,18.62
2019-05-30T09:25:21.814Z,18.69
2019-05-30T09:27:48.391Z,18.75
2019-05-30T09:30:15.263Z,18.75
2019-05-30T09:32:42.671Z,18.94
2019-05-30T09:35:09.383Z,19.00
2019-05-30T09:37:35.349Z,19.00
2019-05-30T09:40:01.758Z,19.06
2019-05-30T09:42:27.784Z,19.12
2019-05-30T09:44:53.772Z,19.31
2019-05-30T09:47:19.769Z,19.31
2019-05-30T09:49:46.564Z,19.44
2019-05-30T09:52:12.523Z,19.56
2019-05-30T09:54:38.495Z,19.50
2019-05-30T09:57:04.728Z,19.56
2019-05-30T09:59:32.659Z,19.56
2019-05-30T10:01:58.707Z,19.81
2019-05-30T10:04:24.731Z,19.69
2019-05-30T10:06:50.766Z,19.69
2019-05-30T10:09:16.796Z,19.69
2019-05-30T10:11:44.114Z,19.81
2019-05-30T10:14:10.674Z,19.75
2019-05-30T10:16:36.614Z,19.94
2019-05-30T10:19:02.908Z,19.94
2019-05-30T10:21:29.089Z,19.87
2019-05-30T10:23:55.108Z,19.87
2019-05-30T10:26:21.078Z,19.75
2019-05-30T10:28:47.771Z,19.75
2019-05-30T10:31:14.148Z,19.87
2019-05-30T10:33:40.465Z,19.94
2019-05-30T10:36:07.680Z,20.06
2019-05-30T10:38:34.946Z,20.06
2019-05-30T10:41:00.984Z,20.19
2019-05-30T10:43:26.951Z,20.19
2019-05-30T10:45:53.402Z,20.25
2019-05-30T10:48:20.897Z,20.19
2019-05-30T10:50:48.565Z,20.44
2019-05-30T10:53:14.631Z,20.31
2019-05-30T10:55:40.623Z,20.25
2019-05-30T10:58:06.492Z,20.31
2019-05-30T11:00:38.709Z,20.56
2019-05-30T11:03:04.712Z,20.69
2019-05-30T11:05:30.703Z,20.69
2019-05-30T11:08:05.520Z,20.69
2019-05-30T11:10:34.218Z,20.75
2019-05-30T11:13:05.686Z,21.00
2019-05-30T11:15:27.905Z,20.81
2019-05-30T11:17:54.822Z,21.00
2019-05-30T11:20:21.690Z,20.94
2019-05-30T11:22:47.897Z,21.06
2019-05-30T11:25:14.118Z,21.06
2019-05-30T11:27:40.101Z,20.88
2019-05-30T11:30:07.978Z,20.75
2019-05-30T11:32:34.004Z,20.62
2019-05-30T11:34:59.990Z,20.62
2019-05-30T11:37:25.973Z,20.75
2019-05-30T11:39:53.171Z,21.00
2019-05-30T11:42:19.305Z,20.88
2019-05-30T11:44:45.267Z,21.00
2019-05-30T11:47:12.415Z,20.94
2019-05-30T11:49:38.523Z,20.88
2019-05-30T11:52:06.804Z,21.00
2019-05-30T11:54:33.067Z,21.06
2019-05-30T11:57:00.121Z,21.06
2019-05-30T11:59:26.401Z,21.12
2019-05-30T12:01:53.060Z,21.37
2019-05-30T12:04:21.258Z,21.31
2019-05-30T12:06:47.187Z,21.50
2019-05-30T12:09:14.631Z,21.50
2019-05-30T12:11:40.640Z,21.44
2019-05-30T12:14:06.506Z,21.56
2019-05-30T12:16:32.492Z,21.69
2019-05-30T12:18:59.618Z,21.75
2019-05-30T12:21:25.901Z,21.75
2019-05-30T12:23:52.082Z,21.62
2019-05-30T12:26:17.999Z,21.62
2019-05-30T12:28:43.907Z,21.69
2019-05-30T12:31:09.790Z,21.75
2019-05-30T12:33:35.628Z,21.87
2019-05-30T12:36:02.703Z,21.81
2019-05-30T12:38:28.803Z,21.81
2019-05-30T12:40:54.781Z,21.94
2019-05-30T12:43:20.709Z,21.81
2019-05-30T12:45:46.732Z,21.94
2019-05-30T12:48:14.670Z,22.37
2019-05-30T12:50:40.646Z,22.13
2019-05-30T12:55:40.453Z,22.31
2019-05-30T12:58:09.469Z,22.25
2019-05-30T13:00:35.742Z,22.31
2019-05-30T13:03:02.980Z,22.19
2019-05-30T13:05:29.182Z,22.31
2019-05-30T13:08:12.083Z,22.44
2019-05-30T13:10:23.596Z,22.44
2019-05-30T13:12:49.474Z,22.69
2019-05-30T13:15:16.840Z,22.69
2019-05-30T13:17:46.452Z,22.69
2019-05-30T13:20:14.664Z,22.75
2019-05-30T13:22:41.390Z,22.87
2019-05-30T13:25:13.174Z,23.00
2019-05-30T13:27:39.156Z,22.69
2019-05-30T13:30:06.253Z,22.75
2019-05-30T13:32:32.393Z,22.75
2019-05-30T13:34:59.205Z,23.00
2019-05-30T13:37:25.340Z,22.81
2019-05-30T13:39:51.208Z,22.81
2019-05-30T13:42:17.088Z,22.81
2019-05-30T13:44:42.964Z,22.81
2019-05-30T13:47:09.334Z,22.81
2019-05-30T13:49:35.250Z,22.62
2019-05-30T13:52:01.196Z,22.69
2019-05-30T13:54:27.042Z,22.69
2019-05-30T13:56:52.900Z,22.75
2019-05-30T13:59:18.778Z,22.87
2019-05-30T14:01:44.653Z,22.87
2019-05-30T14:04:10.577Z,22.81
2019-05-30T14:06:36.491Z,22.75
2019-05-30T14:09:06.290Z,22.62
2019-05-30T14:11:32.501Z,22.62
2019-05-30T14:13:58.489Z,22.69
2019-05-30T14:16:24.445Z,22.50
2019-05-30T14:18:50.423Z,22.62
2019-05-30T14:21:16.312Z,22.56
2019-05-30T14:23:42.243Z,22.56
2019-05-30T14:26:09.373Z,22.56
2019-05-30T14:28:35.457Z,22.62
2019-05-30T14:31:03.410Z,22.81
2019-05-30T14:33:30.314Z,22.81
2019-05-30T14:35:56.297Z,22.56
2019-05-30T14:38:22.194Z,22.81
2019-05-30T14:40:48.132Z,22.81
2019-05-30T14:43:13.983Z,23.00
2019-05-30T14:45:39.825Z,22.75
2019-05-30T14:48:06.409Z,22.94
2019-05-30T14:50:32.363Z,23.06
2019-05-30T14:52:58.342Z,23.00
2019-05-30T14:55:24.184Z,22.87
2019-05-30T14:57:50.374Z,22.75
2019-05-30T15:00:17.926Z,22.75
2019-05-30T15:02:43.921Z,22.75
2019-05-30T15:05:11.467Z,22.69
2019-05-30T15:07:37.551Z,22.56
2019-05-30T15:10:06.619Z,22.50
2019-05-30T15:12:32.832Z,22.44
2019-05-30T15:14:58.796Z,22.44
2019-05-30T15:17:24.691Z,22.44
2019-05-30T15:19:50.998Z,22.37
2019-05-30T15:22:18.390Z,22.37
2019-05-30T15:24:44.554Z,22.37
2019-05-30T15:27:10.517Z,22.37
2019-05-30T15:29:36.400Z,22.37
2019-05-30T15:32:02.341Z,22.37
2019-05-30T15:34:28.628Z,22.31
2019-05-30T15:36:54.593Z,22.25
2019-05-30T15:39:32.301Z,22.25
2019-05-30T15:41:48.664Z,22.25
2019-05-30T15:44:15.761Z,22.19
2019-05-30T15:46:41.724Z,22.13
2019-05-30T15:49:08.164Z,22.13
2019-05-30T15:51:34.127Z,22.06
2019-05-30T15:54:00.089Z,22.13
2019-05-30T15:56:25.985Z,22.06
2019-05-30T15:58:51.898Z,22.00
2019-05-30T16:01:18.022Z,22.00
2019-05-30T16:03:54.790Z,22.00
2019-05-30T16:06:20.918Z,21.94
2019-05-30T16:08:46.891Z,21.87
2019-05-30T16:11:12.837Z,21.87
2019-05-30T16:13:38.841Z,21.87
2019-05-30T16:16:04.823Z,21.81
2019-05-30T16:18:30.787Z,21.81
2019-05-30T16:20:57.532Z,21.81
2019-05-30T16:23:23.613Z,21.75
2019-05-30T16:25:49.491Z,21.75
2019-05-30T16:30:54.701Z,21.75
2019-05-30T16:33:20.623Z,21.75
2019-05-30T16:35:46.605Z,21.75
2019-05-30T16:38:12.573Z,21.69
2019-05-30T16:40:39.080Z,21.69
2019-05-30T16:43:05.061Z,21.75
2019-05-30T16:45:30.938Z,21.69
2019-05-30T16:47:56.825Z,21.69
2019-05-30T16:50:23.407Z,21.75
2019-05-30T16:52:49.386Z,21.69
2019-05-30T16:55:15.495Z,21.69
2019-05-30T16:57:41.485Z,21.62
2019-05-30T17:00:11.838Z,21.56
2019-05-30T17:02:37.829Z,21.56
2019-05-30T17:05:05.135Z,21.56
2019-05-30T17:07:31.020Z,21.56
2019-05-30T17:09:56.997Z,21.50
2019-05-30T17:12:23.786Z,21.44
2019-05-30T17:14:49.931Z,21.44
2019-05-30T17:17:16.279Z,21.44
2019-05-30T17:19:42.592Z,21.25
2019-05-30T17:22:08.550Z,21.19
2019-05-30T17:24:34.709Z,21.12
2019-05-30T17:27:00.681Z,21.00
2019-05-30T17:29:27.717Z,20.81
2019-05-30T17:31:53.636Z,20.75
2019-05-30T17:34:19.955Z,20.75
2019-05-30T17:36:45.978Z,20.62
2019-05-30T17:39:12.360Z,20.56
2019-05-30T17:41:38.318Z,20.50
2019-05-30T17:44:05.486Z,20.50
2019-05-30T17:46:32.544Z,20.56
2019-05-30T17:48:58.585Z,20.44
2019-05-30T17:51:25.791Z,20.50
2019-05-30T17:53:52.274Z,20.44
2019-05-30T17:56:18.219Z,20.37
2019-05-30T17:58:44.210Z,20.37
2019-05-30T18:01:10.103Z,20.31
2019-05-30T18:03:36.070Z,20.37
2019-05-30T18:06:02.029Z,20.25
2019-05-30T18:08:28.943Z,20.25
2019-05-30T18:10:55.016Z,20.19
2019-05-30T18:13:21.059Z,20.19
2019-05-30T18:15:47.161Z,20.19
2019-05-30T18:18:13.234Z,20.19
2019-05-30T18:20:48.491Z,20.12
2019-05-30T18:23:07.386Z,20.06
2019-05-30T18:25:33.471Z,20.06
2019-05-30T18:27:59.492Z,20.06
2019-05-30T18:30:40.155Z,20.06
2019-05-30T18:33:06.110Z,19.94
2019-05-30T18:35:32.509Z,20.00
2019-05-30T18:38:01.769Z,19.87
2019-05-30T18:40:33.280Z,19.87
2019-05-30T18:42:59.335Z,19.81
2019-05-30T18:45:39.131Z,19.75
2019-05-30T18:48:06.012Z,19.69
2019-05-30T18:50:32.032Z,19.69
2019-05-30T18:52:57.894Z,19.69
2019-05-30T18:55:24.562Z,19.62
2019-05-30T18:57:50.644Z,19.62
2019-05-30T19:00:17.990Z,19.56
2019-05-30T19:02:44.446Z,19.56
2019-05-30T19:05:11.296Z,19.50
2019-05-30T19:07:37.348Z,19.50
2019-05-30T19:10:03.894Z,19.50
2019-05-30T19:12:30.113Z,19.62
2019-05-30T19:14:56.488Z,19.44
2019-05-30T19:17:22.443Z,19.31
2019-05-30T19:19:51.197Z,19.37
2019-05-30T19:22:16.192Z,19.37
2019-05-30T19:24:42.136Z,19.37
2019-05-30T19:27:08.033Z,19.37
2019-05-30T19:29:34.905Z,19.37
2019-05-30T19:32:01.044Z,19.31
2019-05-30T19:34:27.016Z,19.37
2019-05-30T19:36:53.545Z,19.31
2019-05-30T19:39:19.484Z,19.31
2019-05-30T19:41:55.596Z,19.31
2019-05-30T19:44:13.266Z,19.25
2019-05-30T19:46:39.261Z,19.25
2019-05-30T19:49:05.188Z,19.19
2019-05-30T19:51:31.500Z,19.12
2019-05-30T19:53:57.881Z,19.12
2019-05-30T19:56:23.753Z,19.12
2019-05-30T19:58:49.693Z,19.25
2019-05-30T20:01:15.560Z,19.19
2019-05-30T20:03:46.721Z,19.12
2019-05-30T20:06:09.584Z,19.12
2019-05-30T20:08:46.950Z,19.06
2019-05-30T20:11:03.384Z,19.06
2019-05-30T20:13:29.390Z,19.00
2019-05-30T20:15:55.346Z,19.00
2019-05-30T20:18:21.222Z,19.06
2019-05-30T20:20:56.730Z,18.94
2019-05-30T20:23:17.275Z,18.87
2019-05-30T20:25:45.831Z,18.94
2019-05-30T20:28:10.822Z,18.87
2019-05-30T20:30:37.076Z,18.81
2019-05-30T20:33:03.297Z,18.81
2019-05-30T20:35:29.312Z,18.75
2019-05-30T20:37:55.316Z,18.75
2019-05-30T20:40:21.374Z,18.69
2019-05-30T20:42:47.410Z,18.69
2019-05-30T20:45:13.807Z,18.75
2019-05-30T20:47:42.180Z,18.62
2019-05-30T20:50:09.582Z,18.56
2019-05-30T20:52:39.098Z,18.62
2019-05-30T20:55:09.313Z,18.50
2019-05-30T20:57:36.224Z,18.50
2019-05-30T21:00:09.221Z,18.50
2019-05-30T21:02:36.553Z,18.50
2019-05-30T21:05:04.439Z,18.44
2019-05-30T21:07:30.397Z,18.44
2019-05-30T21:09:57.169Z,18.44
2019-05-30T21:12:36.852Z,18.37
2019-05-30T21:14:53.173Z,18.44
2019-05-30T21:17:29.438Z,18.37
2019-05-30T21:20:04.662Z,18.37
2019-05-30T21:22:35.987Z,18.31
2019-05-30T21:25:03.249Z,18.31
2019-05-30T21:27:31.591Z,18.25
2019-05-30T21:29:57.721Z,18.31
2019-05-30T21:32:24.046Z,18.19
2019-05-30T21:34:50.506Z,18.12
2019-05-30T21:37:18.941Z,18.19
2019-05-30T21:40:05.081Z,18.19
2019-05-30T21:42:31.841Z,18.12
2019-05-30T21:45:02.832Z,18.12
2019-05-30T21:47:36.043Z,18.12
2019-05-30T21:50:06.762Z,18.06
2019-05-30T21:52:35.095Z,18.06
2019-05-30T21:55:03.494Z,18.06
2019-05-30T21:57:33.149Z,18.06
2019-05-30T21:59:59.277Z,18.00
2019-05-30T22:02:25.461Z,18.06
2019-05-30T22:04:55.818Z,18.00
2019-05-30T22:07:19.684Z,18.00
2019-05-30T22:09:45.798Z,18.00
2019-05-30T22:12:11.909Z,18.00
2019-05-30T22:14:39.968Z,17.94
2019-05-30T22:17:06.312Z,18.00
2019-05-30T22:19:32.517Z,18.00
2019-05-30T22:22:01.609Z,17.87
2019-05-30T22:24:27.783Z,17.81
2019-05-30T22:26:56.751Z,17.81
2019-05-30T22:29:25.918Z,17.81
2019-05-30T22:31:53.560Z,17.81
2019-05-30T22:34:22.912Z,17.75
2019-05-30T22:36:49.250Z,17.75
2019-05-30T22:39:16.222Z,17.69
2019-05-30T22:41:42.174Z,17.75
2019-05-30T22:44:08.152Z,17.75
2019-05-30T22:46:34.028Z,17.75
2019-05-30T22:49:00.197Z,17.75
2019-05-30T22:51:27.648Z,17.75
2019-05-30T22:53:53.800Z,17.81
2019-05-30T22:56:19.680Z,17.75
2019-05-30T22:58:45.631Z,17.87
2019-05-30T23:01:11.545Z,17.81
2019-05-30T23:03:37.563Z,17.69
2019-05-30T23:06:03.540Z,17.62
2019-05-30T23:08:29.527Z,17.69
2019-05-30T23:10:55.838Z,17.69
2019-05-30T23:13:21.809Z,17.69
2019-05-30T23:15:48.154Z,17.69
2019-05-30T23:18:14.171Z,17.75
2019-05-30T23:20:40.117Z,17.69
2019-05-30T23:23:06.064Z,17.75
2019-05-30T23:25:32.077Z,17.69
2019-05-30T23:27:58.074Z,17.69
2019-05-30T23:30:24.214Z,17.69
2019-05-30T23:32:50.498Z,17.69
2019-05-30T23:35:16.608Z,17.69
2019-05-30T23:37:42.462Z,17.75
2019-05-30T23:40:08.734Z,17.69
2019-05-30T23:42:34.612Z,17.69
2019-05-30T23:45:00.491Z,17.62
2019-05-30T23:47:26.376Z,17.69
2019-05-30T23:49:53.735Z,17.62
2019-05-30T23:52:19.790Z,17.62
2019-05-30T23:55:09.458Z,17.62
2019-05-30T23:57:35.430Z,17.62
